»·PEaware :: N3523R KSMX-KSAN

N3523R :: KSMX-KSAN

FLIGHT INFORMATION

Flight Status: Arrived
Operator: Privately registered:
United States
More flights under this callsign
Pilot: Shane E. (12470)
Aircraft: ECLIPSE 500
(EA50)
More flights by this aircraft type
Origin: KSMX Santa Maria Pub/Capt Hancock
United States
Destination: KSAN San Diego Intl-Lindbergh
United States
More flights between these airports :: More routes between these airports
Route: RZS VTU V208 SXC V208 LAX118 CARDI MZB320 MZB
File this flight plan on PilotEdge
Remarks: PBN / D2 NAV / RNVD1E2A1 REG / N550SB RMK / SIMBRIEF
Altitude:
(Current/Filed)
25,000ft
Speed:
(Current/Filed)
375kts
Departed: 05-Aug-18 08:17 PM
Arrived: 05-Aug-18 09:16 PM
Distance/Time
Traveled:
209nm/0:58
Distance/Time
To Go:
Arrived

Flight Plot

Page will automatically refresh every two minutes.


Map Options




Map Legend


Flown Route
Filed Route
Departure Airport
Arrival Airport
Navaid (VOR, NDB)
Fix

Horizontal Profiles

Position Reports

Time Latitude Longitude Heading Altitude Ground
Speed
05-Aug-18 19:50 34.900582 -120.451298 228 264ft 0kts
05-Aug-18 19:51 34.900582 -120.451298 228 264ft 0kts
05-Aug-18 19:52 34.900582 -120.451298 228 264ft 0kts
05-Aug-18 19:53 34.900582 -120.451298 228 264ft 0kts
05-Aug-18 19:54 34.900582 -120.451298 228 264ft 0kts
05-Aug-18 19:55 34.900582 -120.451298 228 264ft 0kts
05-Aug-18 19:56 34.900582 -120.451298 228 264ft 0kts
05-Aug-18 19:57 34.900582 -120.451298 228 264ft 0kts
05-Aug-18 19:58 34.900582 -120.451298 228 264ft 0kts
05-Aug-18 19:59 34.900582 -120.451298 228 264ft 0kts
05-Aug-18 20:00 34.900582 -120.451298 228 264ft 0kts
05-Aug-18 20:01 34.900582 -120.451298 228 264ft 0kts
05-Aug-18 20:02 34.900582 -120.451298 228 264ft 0kts
05-Aug-18 20:03 34.900582 -120.451298 228 264ft 0kts
05-Aug-18 20:04 34.900582 -120.451298 228 264ft 0kts
05-Aug-18 20:05 34.900582 -120.451298 228 264ft 0kts
05-Aug-18 20:06 34.900582 -120.451298 228 264ft 0kts
05-Aug-18 20:07 34.900582 -120.451298 228 264ft 0kts
05-Aug-18 20:08 34.900582 -120.451298 228 264ft 0kts
05-Aug-18 20:09 34.900582 -120.451298 228 264ft 0kts
05-Aug-18 20:10 34.900582 -120.451298 228 264ft 0kts
05-Aug-18 20:11 34.900546 -120.451346 227 264ft 2kts
05-Aug-18 20:12 34.899092 -120.450831 137 264ft 7kts
05-Aug-18 20:13 34.897114 -120.448446 136 264ft 11kts
05-Aug-18 20:14 34.894996 -120.445928 136 264ft 11kts
05-Aug-18 20:15 34.893644 -120.445385 181 264ft 0kts
05-Aug-18 20:16 34.893644 -120.445385 181 264ft 0kts
05-Aug-18 20:17 34.893208 -120.445400 188 264ft 7kts
05-Aug-18 20:18 34.905153 -120.459084 322 921ft 138kts
05-Aug-18 20:19 34.930099 -120.441617 113 1452ft 145kts
05-Aug-18 20:20 34.918555 -120.408249 113 1711ft 142kts
05-Aug-18 20:21 34.902507 -120.361838 113 2999ft 156kts
05-Aug-18 20:22 34.884335 -120.309328 113 3056ft 173kts
05-Aug-18 20:23 34.864429 -120.251664 113 5445ft 190kts
05-Aug-18 20:24 34.843516 -120.190759 113 7990ft 213kts
05-Aug-18 20:25 34.814907 -120.131844 143 8047ft 198kts
05-Aug-18 20:26 34.772532 -120.078472 137 8103ft 245kts
05-Aug-18 20:27 34.725176 -120.022607 138 8453ft 230kts
05-Aug-18 20:28 34.679968 -119.968396 137 9554ft 224kts
05-Aug-18 20:29 34.635460 -119.914687 137 10815ft 229kts
05-Aug-18 20:30 34.584914 -119.853688 137 11011ft 288kts
05-Aug-18 20:31 34.525056 -119.781406 136 10980ft 319kts
05-Aug-18 20:32 34.460945 -119.704081 136 10975ft 320kts
05-Aug-18 20:33 34.398157 -119.628537 136 10977ft 318kts
05-Aug-18 20:34 34.335054 -119.552809 136 10983ft 320kts
05-Aug-18 20:35 34.272078 -119.477382 136 10992ft 319kts
05-Aug-18 20:36 34.208197 -119.401036 136 10995ft 318kts
05-Aug-18 20:37 34.149384 -119.330895 136 10994ft 320kts
05-Aug-18 20:38 34.096416 -119.267859 136 10994ft 320kts
05-Aug-18 20:39 34.032857 -119.192369 136 10995ft 320kts
05-Aug-18 20:40 33.969434 -119.117195 136 10995ft 320kts
05-Aug-18 20:41 33.907454 -119.043907 136 11004ft 321kts
05-Aug-18 20:42 33.844714 -118.969846 137 11003ft 317kts
05-Aug-18 20:43 33.782144 -118.896240 137 11004ft 314kts
05-Aug-18 20:44 33.714069 -118.831930 149 11018ft 310kts
05-Aug-18 20:45 33.651085 -118.790791 145 11027ft 311kts
05-Aug-18 20:46 33.584468 -118.701747 132 11067ft 314kts
05-Aug-18 20:47 33.530203 -118.628434 132 11068ft 314kts
05-Aug-18 20:48 33.481915 -118.563624 133 11068ft 314kts
05-Aug-18 20:49 33.413936 -118.472713 133 11068ft 314kts
05-Aug-18 20:50 33.375269 -118.400810 102 11062ft 316kts
05-Aug-18 20:51 33.359871 -118.303247 101 11064ft 304kts
05-Aug-18 20:52 33.346321 -118.207036 100 11054ft 293kts
05-Aug-18 20:53 33.333174 -118.111030 100 11120ft 292kts
05-Aug-18 20:54 33.320096 -118.015172 100 11113ft 292kts
05-Aug-18 20:55 33.306996 -117.919455 100 11100ft 291kts
05-Aug-18 20:56 33.293941 -117.824551 100 11085ft 290kts
05-Aug-18 20:57 33.281337 -117.733419 100 11086ft 291kts
05-Aug-18 20:58 33.268158 -117.638655 100 11086ft 290kts
05-Aug-18 20:59 33.237048 -117.553780 132 11087ft 288kts
05-Aug-18 21:00 33.183662 -117.483240 134 11085ft 287kts
05-Aug-18 21:01 33.125805 -117.419572 154 11092ft 286kts
05-Aug-18 21:02 33.054759 -117.377984 155 11086ft 282kts
05-Aug-18 21:03 32.985272 -117.338817 155 10282ft 278kts
05-Aug-18 21:04 32.916737 -117.300601 155 9003ft 243kts
05-Aug-18 21:05 32.864053 -117.271287 156 7425ft 204kts
05-Aug-18 21:06 32.816145 -117.244720 157 7043ft 198kts
05-Aug-18 21:07 32.784840 -117.196968 96 7040ft 205kts
05-Aug-18 21:08 32.781370 -117.129834 94 7041ft 195kts
05-Aug-18 21:09 32.778420 -117.065287 106 6693ft 202kts
05-Aug-18 21:10 32.763768 -117.004380 107 5314ft 187kts
05-Aug-18 21:11 32.728647 -116.972499 193 4472ft 185kts
05-Aug-18 21:12 32.692328 -117.011051 283 3179ft 185kts
05-Aug-18 21:13 32.702491 -117.055739 285 2739ft 152kts
05-Aug-18 21:14 32.712354 -117.098229 285 2577ft 114kts
05-Aug-18 21:15 32.720623 -117.135578 289 1579ft 112kts
05-Aug-18 21:16 32.728838 -117.170032 287 286ft 103kts
05-Aug-18 21:17 32.733728 -117.190252 283 16ft 10kts
05-Aug-18 21:18 32.734649 -117.190744 35 16ft 0kts
05-Aug-18 21:19 32.734508 -117.188814 106 16ft 12kts
05-Aug-18 21:20 32.733414 -117.184431 107 16ft 4kts
05-Aug-18 21:21 32.732552 -117.180747 100 17ft 9kts
05-Aug-18 21:22 32.732887 -117.179998 169 19ft 0kts

Navigation Log

Ident Type
Flight plan parsing failed, navigation log unavailable